createdAt,value
2018-07-26T00:01:02.421Z,7.43
2018-07-26T00:03:30.400Z,7.17
2018-07-26T00:05:57.719Z,7.13
2018-07-26T00:08:25.048Z,6.93
2018-07-26T00:10:52.360Z,7.23
2018-07-26T00:13:19.753Z,6.73
2018-07-26T00:15:47.054Z,7.27
2018-07-26T00:18:14.379Z,7.03
2018-07-26T00:20:41.671Z,7.47
2018-07-26T00:23:08.965Z,7.83
2018-07-26T00:25:36.276Z,7.70
2018-07-26T00:28:03.616Z,7.33
2018-07-26T00:30:30.897Z,7.70
2018-07-26T00:32:58.226Z,8.13
2018-07-26T00:35:25.541Z,8.67
2018-07-26T00:37:52.856Z,8.47
2018-07-26T00:40:20.186Z,8.93
2018-07-26T00:42:47.528Z,8.90
2018-07-26T00:45:14.807Z,8.63
2018-07-26T00:47:42.127Z,8.50
2018-07-26T00:50:09.469Z,8.73
2018-07-26T00:52:36.875Z,8.67
2018-07-26T00:55:04.354Z,8.37
2018-07-26T00:57:31.772Z,8.10
2018-07-26T00:59:59.243Z,8.57
2018-07-26T01:02:26.557Z,7.77
2018-07-26T01:04:53.872Z,7.90
2018-07-26T01:07:21.276Z,8.47
2018-07-26T01:09:48.597Z,7.63
2018-07-26T01:12:15.976Z,7.57
2018-07-26T01:14:43.291Z,8.37
2018-07-26T01:17:10.643Z,9.03
2018-07-26T01:19:38.035Z,8.00
2018-07-26T01:22:05.916Z,8.77
2018-07-26T01:24:33.272Z,8.70
2018-07-26T01:27:01.491Z,8.47
2018-07-26T01:29:33.388Z,8.97
2018-07-26T01:32:00.844Z,8.47
2018-07-26T01:34:28.173Z,9.13
2018-07-26T01:36:55.476Z,8.50
2018-07-26T01:39:22.828Z,8.67
2018-07-26T01:41:50.689Z,9.33
2018-07-26T01:44:19.116Z,9.33
2018-07-26T01:46:46.459Z,10.13
2018-07-26T01:49:13.783Z,9.33
2018-07-26T01:51:41.206Z,10.00
2018-07-26T01:54:08.540Z,9.97
2018-07-26T01:56:35.881Z,9.53
2018-07-26T01:59:03.247Z,9.53
2018-07-26T02:01:31.216Z,9.80
2018-07-26T02:03:58.607Z,9.60
2018-07-26T02:06:25.972Z,8.73
2018-07-26T02:08:53.305Z,8.90
2018-07-26T02:11:20.652Z,9.37
2018-07-26T02:13:48.004Z,8.53
2018-07-26T02:16:15.320Z,9.20
2018-07-26T02:18:42.634Z,8.60
2018-07-26T02:21:09.968Z,9.00
2018-07-26T02:23:37.316Z,9.03
2018-07-26T02:26:04.772Z,8.93
2018-07-26T02:28:32.163Z,9.33
2018-07-26T02:30:59.686Z,9.50
2018-07-26T02:33:27.104Z,8.87
2018-07-26T02:35:54.512Z,9.20
2018-07-26T02:38:21.857Z,9.93
2018-07-26T02:40:49.199Z,9.80
2018-07-26T02:43:16.488Z,8.80
2018-07-26T02:45:43.830Z,8.77
2018-07-26T02:48:11.181Z,8.90
2018-07-26T02:50:38.560Z,9.07
2018-07-26T02:53:05.896Z,8.50
2018-07-26T02:55:33.303Z,8.67
2018-07-26T02:58:00.600Z,9.10
2018-07-26T03:00:28.183Z,9.03
2018-07-26T03:02:55.599Z,9.37
2018-07-26T03:05:22.972Z,8.90
2018-07-26T03:07:50.291Z,9.87
2018-07-26T03:10:17.636Z,10.17
2018-07-26T03:12:44.988Z,9.57
2018-07-26T03:15:12.297Z,10.40
2018-07-26T03:17:39.611Z,10.53
2018-07-26T03:20:07.028Z,10.60
2018-07-26T03:22:34.374Z,10.80
2018-07-26T03:25:01.719Z,10.10
2018-07-26T03:27:29.037Z,10.20
2018-07-26T03:29:56.364Z,9.70
2018-07-26T03:32:23.820Z,11.07
2018-07-26T03:34:51.149Z,10.60
2018-07-26T03:37:18.515Z,9.80
2018-07-26T03:39:45.884Z,10.27
2018-07-26T03:42:13.240Z,10.43
2018-07-26T03:44:40.600Z,10.90
2018-07-26T03:47:07.951Z,11.37
2018-07-26T03:49:35.286Z,11.80
2018-07-26T03:52:02.616Z,11.77
2018-07-26T03:54:29.969Z,11.30
2018-07-26T03:56:57.302Z,10.37
2018-07-26T03:59:24.732Z,11.60
2018-07-26T04:01:52.084Z,11.43
2018-07-26T04:04:19.408Z,11.80
2018-07-26T04:06:47.438Z,11.43
2018-07-26T04:09:15.527Z,11.50
2018-07-26T04:11:44.124Z,11.57
2018-07-26T04:14:11.542Z,12.33
2018-07-26T04:16:38.943Z,11.73
2018-07-26T04:19:06.831Z,11.83
2018-07-26T04:21:34.192Z,11.53
2018-07-26T04:24:01.948Z,12.50
2018-07-26T04:26:30.351Z,11.87
2018-07-26T04:28:57.836Z,11.47
2018-07-26T04:31:25.200Z,12.10
2018-07-26T04:33:52.528Z,11.83
2018-07-26T04:36:19.886Z,12.33
2018-07-26T04:38:47.182Z,11.33
2018-07-26T04:41:14.517Z,11.37
2018-07-26T04:43:41.913Z,11.93
2018-07-26T04:46:09.225Z,10.97
2018-07-26T04:48:37.388Z,11.50
2018-07-26T04:51:05.469Z,12.17
2018-07-26T04:53:32.790Z,11.03
2018-07-26T04:56:00.081Z,11.00
2018-07-26T04:58:27.869Z,12.20
2018-07-26T05:00:55.663Z,12.27
2018-07-26T05:03:23.218Z,12.03
2018-07-26T05:05:50.517Z,11.00
2018-07-26T05:08:17.813Z,11.70
2018-07-26T05:10:45.309Z,12.03
2018-07-26T05:13:12.609Z,11.63
2018-07-26T05:15:40.076Z,10.60
2018-07-26T05:18:08.180Z,11.57
2018-07-26T05:20:35.567Z,11.20
2018-07-26T05:23:02.841Z,11.77
2018-07-26T05:25:30.174Z,12.27
2018-07-26T05:27:57.717Z,11.50
2018-07-26T05:30:25.152Z,11.80
2018-07-26T05:32:52.517Z,11.30
2018-07-26T05:35:19.963Z,11.07
2018-07-26T05:37:47.406Z,11.00
2018-07-26T05:40:14.885Z,10.97
2018-07-26T05:42:42.341Z,11.20
2018-07-26T05:45:09.687Z,10.50
2018-07-26T05:47:37.052Z,10.97
2018-07-26T05:50:04.917Z,10.50
2018-07-26T05:52:32.255Z,8.80
2018-07-26T05:54:59.600Z,9.17
2018-07-26T05:57:26.964Z,10.33
2018-07-26T05:59:54.384Z,10.57
2018-07-26T06:02:21.763Z,10.90
2018-07-26T06:04:49.235Z,10.67
2018-07-26T06:07:16.581Z,10.20
2018-07-26T06:09:44.421Z,9.87
2018-07-26T06:12:11.788Z,9.80
2018-07-26T06:14:39.105Z,11.50
2018-07-26T06:17:06.515Z,10.20
2018-07-26T06:19:33.854Z,10.20
2018-07-26T06:22:01.188Z,10.50
2018-07-26T06:24:28.568Z,9.60
2018-07-26T06:26:55.933Z,9.27
2018-07-26T06:29:23.250Z,9.70
2018-07-26T06:31:50.646Z,10.07
2018-07-26T06:34:18.166Z,9.33
2018-07-26T06:36:45.518Z,9.40
2018-07-26T06:39:13.727Z,8.47
2018-07-26T06:41:41.324Z,8.90
2018-07-26T06:44:08.623Z,8.83
2018-07-26T06:46:36.160Z,9.07
2018-07-26T06:49:03.531Z,8.77
2018-07-26T06:51:31.041Z,8.87
2018-07-26T06:53:58.413Z,9.23
2018-07-26T06:56:25.829Z,8.10
2018-07-26T06:58:53.175Z,8.23
2018-07-26T07:01:20.491Z,7.40
2018-07-26T07:03:47.865Z,7.43
2018-07-26T07:06:15.193Z,7.60
2018-07-26T07:08:42.480Z,7.23
2018-07-26T07:11:09.893Z,7.90
2018-07-26T07:13:37.207Z,7.63
2018-07-26T07:16:04.675Z,7.10
2018-07-26T07:18:32.012Z,7.53
2018-07-26T07:20:59.323Z,6.63
2018-07-26T07:23:26.656Z,7.42
2018-07-26T07:25:53.954Z,5.90
2018-07-26T07:28:21.261Z,5.40
2018-07-26T07:30:48.532Z,5.37
2018-07-26T07:33:15.884Z,4.53
2018-07-26T07:35:43.140Z,5.12
2018-07-26T07:38:10.472Z,4.28
2018-07-26T07:40:37.803Z,4.42
2018-07-26T07:43:05.259Z,5.22
2018-07-26T07:45:32.703Z,4.10
2018-07-26T07:48:00.055Z,3.80
2018-07-26T07:50:27.373Z,3.37
2018-07-26T07:53:10.462Z,3.47
2018-07-26T07:55:37.782Z,2.92
2018-07-26T07:58:05.500Z,3.80
2018-07-26T08:00:32.875Z,3.47
2018-07-26T08:03:00.386Z,3.30
2018-07-26T08:05:27.687Z,3.10
2018-07-26T08:07:54.996Z,3.60
2018-07-26T08:10:22.393Z,4.33
2018-07-26T08:12:49.727Z,3.50
2018-07-26T08:15:17.171Z,3.10
2018-07-26T08:17:44.546Z,3.52
2018-07-26T08:20:11.831Z,3.70
2018-07-26T08:22:39.183Z,5.10
2018-07-26T08:25:06.907Z,4.25
2018-07-26T08:27:34.273Z,3.77
2018-07-26T08:30:01.617Z,3.67
2018-07-26T08:32:28.981Z,3.42
2018-07-26T08:35:01.995Z,3.85
2018-07-26T08:37:29.309Z,3.58
2018-07-26T08:39:56.638Z,3.80
2018-07-26T08:42:24.040Z,3.65
2018-07-26T08:44:51.344Z,3.55
2018-07-26T08:47:18.715Z,3.80
2018-07-26T08:49:46.051Z,3.72
2018-07-26T08:52:13.420Z,3.60
2018-07-26T08:54:40.704Z,3.95
2018-07-26T08:57:08.113Z,4.00
2018-07-26T08:59:35.407Z,3.83
2018-07-26T09:02:02.761Z,3.80
2018-07-26T09:04:30.076Z,3.83
2018-07-26T09:06:57.472Z,3.50
2018-07-26T09:09:24.764Z,3.50
2018-07-26T09:11:52.048Z,3.37
2018-07-26T09:14:19.406Z,3.42
2018-07-26T09:16:46.701Z,3.60
2018-07-26T09:19:14.030Z,3.33
2018-07-26T09:21:41.308Z,3.40
2018-07-26T09:24:08.658Z,3.30
2018-07-26T09:26:35.944Z,3.77
2018-07-26T09:29:03.260Z,3.62
2018-07-26T09:31:30.551Z,3.52
2018-07-26T09:33:57.850Z,3.42
2018-07-26T09:36:25.156Z,3.40
2018-07-26T09:38:52.472Z,3.90
2018-07-26T09:41:19.763Z,3.58
2018-07-26T09:43:47.152Z,3.50
2018-07-26T09:46:14.843Z,3.20
2018-07-26T09:48:42.263Z,3.52
2018-07-26T09:51:09.641Z,3.30
2018-07-26T09:53:36.943Z,3.55
2018-07-26T09:56:14.454Z,3.65
2018-07-26T09:58:41.788Z,3.00
2018-07-26T10:01:43.043Z,3.37
2018-07-26T10:04:10.425Z,3.47
2018-07-26T10:06:37.743Z,3.50
2018-07-26T10:09:10.232Z,2.95
2018-07-26T10:11:37.572Z,3.05
2018-07-26T10:14:04.894Z,2.77
2018-07-26T10:16:32.180Z,2.90
2018-07-26T10:18:59.467Z,3.08
2018-07-26T10:21:26.740Z,3.17
2018-07-26T10:23:54.047Z,3.22
2018-07-26T10:26:21.371Z,3.30
2018-07-26T10:28:48.694Z,3.08
2018-07-26T10:31:15.993Z,3.02
2018-07-26T10:33:43.388Z,3.65
2018-07-26T10:36:10.661Z,3.00
2018-07-26T10:38:37.969Z,3.00
2018-07-26T10:41:05.372Z,3.60
2018-07-26T10:43:32.693Z,5.67
2018-07-26T10:46:00.083Z,7.75
2018-07-26T10:48:27.404Z,4.22
2018-07-26T10:50:54.679Z,5.03
2018-07-26T10:53:21.960Z,3.37
2018-07-26T10:55:49.287Z,3.10
2018-07-26T10:58:16.597Z,2.90
2018-07-26T11:00:43.941Z,3.10
2018-07-26T11:03:11.272Z,3.40
2018-07-26T11:05:38.704Z,3.20
2018-07-26T11:08:06.020Z,3.00
2018-07-26T11:10:33.384Z,3.00
2018-07-26T11:13:00.735Z,3.30
2018-07-26T11:15:31.446Z,3.30
2018-07-26T11:17:59.248Z,3.30
2018-07-26T11:20:26.634Z,3.33
2018-07-26T11:22:53.909Z,3.10
2018-07-26T11:25:21.301Z,3.00
2018-07-26T11:27:48.654Z,3.10
2018-07-26T11:30:16.029Z,3.10
2018-07-26T11:32:43.432Z,3.33
2018-07-26T11:35:11.407Z,3.10
2018-07-26T11:37:38.852Z,3.45
2018-07-26T11:40:06.183Z,3.10
2018-07-26T11:42:33.547Z,3.12
2018-07-26T11:45:01.201Z,2.92
2018-07-26T11:47:28.623Z,2.95
2018-07-26T11:49:55.973Z,3.20
2018-07-26T11:52:24.391Z,3.10
2018-07-26T11:54:52.661Z,3.70
2018-07-26T11:57:19.968Z,3.12
2018-07-26T11:59:47.384Z,2.75
2018-07-26T12:02:14.939Z,3.10
2018-07-26T12:04:42.428Z,2.95
2018-07-26T12:07:09.960Z,3.20
2018-07-26T12:09:38.344Z,2.80
2018-07-26T12:15:01.200Z,3.33
2018-07-26T12:17:28.569Z,3.15
2018-07-26T12:19:55.901Z,3.12
2018-07-26T12:22:23.227Z,3.35
2018-07-26T12:24:51.239Z,3.20
2018-07-26T12:27:18.575Z,3.05
2018-07-26T12:29:45.904Z,3.20
2018-07-26T12:32:13.269Z,3.35
2018-07-26T12:34:40.624Z,3.00
2018-07-26T12:37:07.988Z,2.98
2018-07-26T12:39:35.562Z,3.45
2018-07-26T12:42:02.869Z,2.62
2018-07-26T12:44:30.192Z,2.58
2018-07-26T12:46:57.511Z,3.33
2018-07-26T12:49:24.798Z,3.27
2018-07-26T12:51:52.145Z,3.30
2018-07-26T12:54:19.448Z,3.25
2018-07-26T12:56:46.817Z,3.40
2018-07-26T12:59:14.140Z,3.20
2018-07-26T13:01:41.913Z,3.10
2018-07-26T13:04:09.240Z,3.55
2018-07-26T13:06:36.604Z,3.35
2018-07-26T13:09:05.736Z,3.45
2018-07-26T13:11:33.087Z,3.25
2018-07-26T13:14:00.408Z,3.10
2018-07-26T13:16:27.773Z,3.15
2018-07-26T13:18:55.149Z,3.33
2018-07-26T13:21:23.775Z,3.35
2018-07-26T13:23:57.855Z,3.08
2018-07-26T13:26:25.222Z,3.30
2018-07-26T13:28:52.527Z,3.17
2018-07-26T13:31:19.949Z,3.33
2018-07-26T13:33:47.277Z,2.90
2018-07-26T13:36:19.574Z,3.25
2018-07-26T13:38:47.004Z,2.80
2018-07-26T13:41:14.419Z,2.90
2018-07-26T13:43:41.711Z,3.02
2018-07-26T13:46:09.080Z,3.08
2018-07-26T13:48:36.441Z,3.15
2018-07-26T13:51:03.806Z,3.00
2018-07-26T13:53:31.119Z,3.30
2018-07-26T13:55:58.481Z,3.22
2018-07-26T13:58:25.859Z,3.17
2018-07-26T14:00:53.218Z,2.90
2018-07-26T14:03:20.568Z,3.12
2018-07-26T14:05:47.926Z,3.25
2018-07-26T14:08:15.208Z,3.40
2018-07-26T14:10:42.616Z,3.10
2018-07-26T14:13:09.926Z,2.90
2018-07-26T14:15:37.236Z,3.30
2018-07-26T14:18:04.548Z,2.92
2018-07-26T14:20:31.863Z,2.87
2018-07-26T14:22:59.279Z,3.00
2018-07-26T14:25:26.563Z,2.90
2018-07-26T14:27:53.844Z,3.00
2018-07-26T14:30:21.129Z,2.65
2018-07-26T14:32:48.451Z,3.20
2018-07-26T14:35:15.773Z,3.35
2018-07-26T14:37:43.057Z,3.25
2018-07-26T14:40:10.385Z,2.87
2018-07-26T14:42:37.721Z,3.40
2018-07-26T14:45:05.149Z,2.98
2018-07-26T14:47:32.445Z,3.42
2018-07-26T14:49:59.720Z,3.30
2018-07-26T14:52:27.029Z,3.22
2018-07-26T14:54:54.349Z,3.08
2018-07-26T14:57:21.736Z,2.80
2018-07-26T14:59:49.037Z,3.10
2018-07-26T15:02:16.521Z,3.10
2018-07-26T15:04:43.836Z,3.20
2018-07-26T15:07:11.156Z,3.42
2018-07-26T15:09:38.580Z,3.00
2018-07-26T15:12:06.733Z,3.00
2018-07-26T15:14:34.030Z,3.00
2018-07-26T15:17:01.986Z,3.20
2018-07-26T15:19:29.283Z,3.22
2018-07-26T15:21:57.299Z,3.20
2018-07-26T15:24:24.668Z,3.10
2018-07-26T15:26:52.035Z,3.30
2018-07-26T15:29:19.362Z,3.17
2018-07-26T15:31:46.728Z,3.25
2018-07-26T15:34:14.290Z,3.20
2018-07-26T15:36:46.803Z,3.20
2018-07-26T15:39:14.990Z,2.95
2018-07-26T15:41:44.436Z,3.40
2018-07-26T15:44:14.393Z,2.80
2018-07-26T15:46:54.873Z,3.20
2018-07-26T15:49:27.493Z,3.83
2018-07-26T15:51:55.769Z,3.60
2018-07-26T15:54:23.160Z,3.60
2018-07-26T15:56:51.045Z,3.67
2018-07-26T15:59:18.472Z,3.40
2018-07-26T16:01:45.786Z,3.87
2018-07-26T16:04:13.387Z,3.80
2018-07-26T16:06:40.878Z,3.83
2018-07-26T16:09:09.152Z,3.12
2018-07-26T16:11:36.485Z,3.75
2018-07-26T16:14:04.107Z,3.42
2018-07-26T16:16:32.277Z,3.80
2018-07-26T16:24:44.107Z,3.70
2018-07-26T16:27:12.065Z,3.45
2018-07-26T16:32:25.117Z,3.58
2018-07-26T16:34:52.643Z,3.62
2018-07-26T16:37:20.698Z,3.40
2018-07-26T16:39:49.699Z,3.33
2018-07-26T16:42:17.357Z,3.95
2018-07-26T16:44:45.557Z,3.52
2018-07-26T16:47:13.405Z,3.90
2018-07-26T16:49:42.232Z,3.20
2018-07-26T16:54:56.678Z,3.47
2018-07-26T16:57:24.659Z,3.37
2018-07-26T16:59:53.247Z,3.62
2018-07-26T17:02:21.163Z,4.08
2018-07-26T17:04:48.472Z,3.42
2018-07-26T17:07:15.789Z,3.58
2018-07-26T17:09:43.523Z,3.05
2018-07-26T17:12:11.054Z,3.30
2018-07-26T17:14:38.358Z,3.02
2018-07-26T17:17:05.707Z,3.00
2018-07-26T17:19:33.127Z,3.17
2018-07-26T17:22:00.668Z,3.17
2018-07-26T17:24:27.976Z,2.80
2018-07-26T17:26:55.300Z,3.67
2018-07-26T17:29:22.607Z,3.30
2018-07-26T17:31:49.900Z,3.10
2018-07-26T17:34:17.194Z,3.10
2018-07-26T17:36:44.475Z,3.12
2018-07-26T17:39:12.224Z,3.37
2018-07-26T17:41:39.701Z,3.45
2018-07-26T17:44:07.146Z,3.70
2018-07-26T17:46:34.655Z,3.50
2018-07-26T17:49:02.037Z,3.08
2018-07-26T17:51:29.437Z,3.47
2018-07-26T17:53:56.802Z,3.37
2018-07-26T17:56:24.188Z,3.42
2018-07-26T17:58:51.656Z,3.40
2018-07-26T18:01:18.943Z,3.10
2018-07-26T18:03:46.572Z,3.62
2018-07-26T18:06:13.917Z,3.33
2018-07-26T18:08:41.335Z,3.55
2018-07-26T18:11:08.756Z,3.10
2018-07-26T18:13:36.132Z,3.25
2018-07-26T18:16:03.504Z,3.40
2018-07-26T18:18:30.860Z,3.65
2018-07-26T18:20:58.215Z,3.72
2018-07-26T18:23:25.527Z,3.35
2018-07-26T18:25:52.824Z,3.22
2018-07-26T18:28:20.188Z,3.55
2018-07-26T18:30:47.479Z,3.00
2018-07-26T18:33:14.819Z,3.60
2018-07-26T18:35:42.484Z,3.80
2018-07-26T18:38:09.945Z,3.47
2018-07-26T18:40:39.228Z,3.52
2018-07-26T18:43:06.565Z,3.20
2018-07-26T18:45:33.916Z,3.58
2018-07-26T18:48:01.262Z,3.72
2018-07-26T18:50:28.606Z,3.50
2018-07-26T18:52:56.057Z,3.50
2018-07-26T18:55:23.457Z,3.62
2018-07-26T18:57:50.893Z,3.40
2018-07-26T19:00:18.388Z,3.58
2018-07-26T19:02:45.775Z,3.90
2018-07-26T19:05:13.148Z,3.58
2018-07-26T19:07:40.448Z,4.25
2018-07-26T19:10:09.288Z,3.25
2018-07-26T19:12:37.596Z,3.50
2018-07-26T19:15:05.919Z,3.35
2018-07-26T19:17:33.219Z,3.22
2018-07-26T19:20:00.584Z,3.50
2018-07-26T19:22:28.008Z,3.37
2018-07-26T19:24:55.401Z,3.60
2018-07-26T19:27:22.710Z,3.42
2018-07-26T19:29:50.040Z,3.30
2018-07-26T19:32:17.340Z,3.40
2018-07-26T19:34:44.744Z,3.40
2018-07-26T19:37:12.066Z,3.22
2018-07-26T19:39:39.390Z,3.15
2018-07-26T19:42:06.885Z,3.17
2018-07-26T19:44:34.223Z,3.33
2018-07-26T19:47:01.568Z,3.55
2018-07-26T19:49:28.935Z,3.12
2018-07-26T19:51:56.327Z,3.77
2018-07-26T19:54:23.704Z,3.60
2018-07-26T19:56:51.048Z,3.20
2018-07-26T19:59:18.367Z,3.52
2018-07-26T20:01:45.808Z,3.45
2018-07-26T20:04:13.813Z,3.63
2018-07-26T20:06:41.131Z,3.65
2018-07-26T20:09:09.967Z,3.30
2018-07-26T20:11:37.452Z,3.37
2018-07-26T20:14:05.199Z,3.33
2018-07-26T20:16:32.508Z,3.33
2018-07-26T20:18:59.889Z,3.27
2018-07-26T20:21:27.242Z,3.40
2018-07-26T20:23:54.556Z,3.40
2018-07-26T20:26:22.904Z,3.90
2018-07-26T20:28:50.285Z,3.53
2018-07-26T20:31:18.610Z,3.93
2018-07-26T20:33:46.048Z,3.60
2018-07-26T20:36:13.420Z,3.80
2018-07-26T20:38:41.819Z,3.93
2018-07-26T20:41:09.247Z,3.50
2018-07-26T20:43:36.560Z,3.70
2018-07-26T20:46:04.015Z,3.53
2018-07-26T20:48:31.354Z,3.40
2018-07-26T20:50:58.716Z,3.50
2018-07-26T20:53:26.057Z,3.30
2018-07-26T20:55:53.472Z,3.93
2018-07-26T20:58:20.754Z,4.10
2018-07-26T21:00:48.077Z,3.73
2018-07-26T21:03:15.449Z,3.50
2018-07-26T21:05:42.801Z,3.80
2018-07-26T21:08:10.136Z,4.00
2018-07-26T21:10:37.476Z,3.87
2018-07-26T21:13:04.800Z,4.03
2018-07-26T21:15:32.148Z,3.73
2018-07-26T21:17:59.480Z,3.63
2018-07-26T21:20:38.476Z,3.80
2018-07-26T21:23:06.697Z,4.13
2018-07-26T21:25:34.008Z,3.80
2018-07-26T21:28:01.320Z,3.87
2018-07-26T21:30:28.656Z,3.90
2018-07-26T21:32:55.968Z,3.80
2018-07-26T21:35:23.916Z,3.97
2018-07-26T21:37:51.683Z,4.50
2018-07-26T21:40:19.018Z,3.97
2018-07-26T21:42:46.539Z,4.23
2018-07-26T21:45:13.868Z,4.13
2018-07-26T21:47:41.169Z,3.97
2018-07-26T21:50:15.818Z,4.20
2018-07-26T21:52:43.107Z,4.10
2018-07-26T21:55:10.493Z,3.50
2018-07-26T21:57:37.776Z,4.47
2018-07-26T22:00:07.177Z,4.37
2018-07-26T22:02:34.597Z,4.00
2018-07-26T22:05:01.973Z,3.90
2018-07-26T22:07:29.284Z,3.83
2018-07-26T22:09:56.609Z,4.20
2018-07-26T22:12:24.038Z,4.40
2018-07-26T22:14:51.500Z,4.40
2018-07-26T22:17:18.951Z,4.17
2018-07-26T22:19:46.244Z,4.07
2018-07-26T22:22:13.625Z,4.90
2018-07-26T22:24:41.024Z,4.00
2018-07-26T22:27:08.497Z,4.60
2018-07-26T22:29:35.823Z,4.07
2018-07-26T22:32:03.212Z,4.30
2018-07-26T22:34:30.530Z,4.20
2018-07-26T22:36:58.137Z,4.03
2018-07-26T22:39:29.074Z,4.77
2018-07-26T22:41:56.480Z,4.60
2018-07-26T22:44:23.874Z,4.67
2018-07-26T22:46:51.268Z,4.40
2018-07-26T22:49:18.697Z,4.20
2018-07-26T22:51:46.052Z,4.40
2018-07-26T22:54:13.428Z,4.30
2018-07-26T22:56:40.736Z,4.53
2018-07-26T22:59:09.076Z,4.70
2018-07-26T23:01:36.480Z,4.63
2018-07-26T23:04:03.856Z,4.90
2018-07-26T23:06:31.185Z,4.27
2018-07-26T23:08:58.643Z,4.50
2018-07-26T23:11:26.493Z,4.50
2018-07-26T23:13:53.872Z,4.40
2018-07-26T23:16:22.112Z,4.63
2018-07-26T23:18:49.442Z,4.83
2018-07-26T23:21:16.976Z,5.07
2018-07-26T23:23:44.413Z,4.53
2018-07-26T23:26:11.868Z,4.50
2018-07-26T23:28:39.727Z,4.73
2018-07-26T23:31:07.184Z,4.80
2018-07-26T23:33:34.959Z,4.40
2018-07-26T23:36:17.465Z,4.67
2018-07-26T23:38:44.784Z,4.07
2018-07-26T23:41:12.115Z,4.27
2018-07-26T23:43:39.472Z,4.63
2018-07-26T23:46:06.862Z,4.27
2018-07-26T23:48:34.227Z,4.40
2018-07-26T23:51:13.935Z,4.00
2018-07-26T23:53:41.220Z,4.90
2018-07-26T23:56:09.506Z,4.80
2018-07-26T23:58:36.871Z,4.23
